Time;durP1;ratioP1;P1;durP2;ratioP2;P2;SDS_P1;SDS_P2;PMS_P1;PMS_P2;Temp;Humidity;BMP_temperature;BMP_pressure;BME280_temperature;BME280_humidity;BME280_pressure;Samples;Min_cycle;Max_cycle;Signal;HPM_P1;HPM_P2
2023/12/10 04:48:00;;;;;;;14.82;6.20;;;;;;;-9.05;60.51;100817.38;6274139;22;20011;-89
2023/12/10 04:50:48;;;;;;;21.40;6.88;;;;;;;-9.31;60.54;100761.63;6272636;22;20027;-86
2023/12/10 04:53:27;;;;;;;19.58;7.78;;;;;;;-9.67;60.21;100699.00;6173002;23;20027;-87
2023/12/10 04:55:54;;;;;;;15.13;6.38;;;;;;;-9.12;60.55;100794.28;6266891;23;20024;-88
2023/12/10 04:58:20;;;;;;;14.05;7.00;;;;;;;-9.15;60.48;100789.28;6219735;23;20035;-91
2023/12/10 05:01:12;;;;;;;18.63;7.53;;;;;;;-8.94;60.41;100811.03;6242610;23;20020;-86
2023/12/10 05:03:38;;;;;;;21.90;7.60;;;;;;;-9.40;60.25;100730.78;6242108;23;20016;-90
2023/12/10 05:06:05;;;;;;;14.48;6.88;;;;;;;-9.39;60.61;100760.72;6265344;23;20039;-88
2023/12/10 05:08:36;;;;;;;25.42;10.55;;;;;;;-8.88;60.43;100806.97;6236229;23;20016;-91
2023/12/10 05:11:03;;;;;;;22.15;6.78;;;;;;;-9.16;60.81;100763.81;6242282;23;20047;-88
2023/12/10 05:13:31;;;;;;;18.05;6.18;;;;;;;-8.84;60.39;100822.44;6272540;23;20053;-87
2023/12/10 05:16:19;;;;;;;21.48;7.60;;;;;;;-8.81;60.68;100811.50;6270611;22;20048;-90
2023/12/10 06:11:53;;;;;;;18.02;6.65;;;;;;;-8.80;60.18;100792.00;6264054;22;20470;-87
2023/12/10 06:15:15;;;;;;;19.15;6.57;;;;;;;-9.31;60.11;100692.78;6247504;23;20487;-84
2023/12/10 06:17:42;;;;;;;25.65;7.70;;;;;;;-8.92;60.41;100764.03;6237095;23;20016;-89
2023/12/10 06:20:18;;;;;;;13.93;6.55;;;;;;;-8.78;59.82;100797.94;6236117;23;20058;-89
2023/12/10 07:09:29;;;;;;;18.48;6.57;;;;;;;-8.30;59.30;100802.00;6226462;23;20032;-92
2023/12/10 07:11:56;;;;;;;12.18;6.55;;;;;;;-8.32;59.38;100800.47;6200684;23;20020;-89
2023/12/10 07:14:48;;;;;;;13.73;6.75;;;;;;;-8.73;59.29;100738.38;6179522;23;20546;-90
2023/12/10 07:34:44;;;;;;;14.43;5.60;;;;;;;-8.84;58.99;100742.94;6284591;22;20023;-90
2023/12/10 07:46:37;;;;;;;11.32;5.93;;;;;;;-8.10;58.64;100807.13;6196540;23;20029;-90
2023/12/10 07:49:03;;;;;;;16.08;7.20;;;;;;;-7.99;58.58;100796.25;6168685;23;20044;-87
2023/12/10 07:51:30;;;;;;;26.45;7.45;;;;;;;-8.32;58.43;100739.47;6145878;23;19993;-86
2023/12/10 07:54:07;;;;;;;17.25;6.13;;;;;;;-8.55;58.27;100710.84;6174976;23;20017;-87
2023/12/10 07:56:34;;;;;;;17.60;8.18;;;;;;;-7.99;58.67;100795.41;6198344;23;20456;-85
2023/12/10 07:59:01;;;;;;;17.20;7.82;;;;;;;-7.74;58.33;100799.88;6197014;23;20023;-88
2023/12/10 08:01:27;;;;;;;10.70;5.80;;;;;;;-7.95;58.27;100759.59;6174172;23;20021;-90
2023/12/10 08:03:53;;;;;;;20.40;6.00;;;;;;;-8.01;58.18;100742.50;6197827;23;20248;-88
2023/12/10 08:06:20;;;;;;;12.27;6.57;;;;;;;-8.11;57.72;100725.84;6197338;23;20028;-89
2023/12/10 08:09:00;;;;;;;10.77;5.32;;;;;;;-8.22;57.89;100688.97;6199921;23;20020;-87
2023/12/10 08:11:29;;;;;;;22.70;7.70;;;;;;;-7.43;57.60;100792.22;6172733;23;20025;-85
2023/12/10 08:13:55;;;;;;;25.85;7.88;;;;;;;-7.61;57.66;100767.59;6170910;23;20021;-88
2023/12/10 08:16:23;;;;;;;16.55;7.88;;;;;;;-7.42;57.29;100785.91;6193999;23;20024;-89
2023/12/10 08:18:50;;;;;;;20.65;7.63;;;;;;;-7.52;57.72;100766.63;6192450;23;20020;-89
2023/12/10 08:21:16;;;;;;;19.13;6.90;;;;;;;-7.36;57.44;100787.13;6169642;23;20024;-87
2023/12/10 08:23:44;;;;;;;27.10;8.25;;;;;;;-7.72;57.24;100723.56;6168065;23;20017;-88
2023/12/10 08:26:14;;;;;;;;;;;;;;;-7.23;57.63;100787.50;6172936;23;20546;-87
2023/12/10 08:28:42;;;;;;;18.40;6.40;;;;;;;-7.32;56.94;100761.88;6197520;23;19924;-86
2023/12/10 08:31:29;;;;;;;16.38;6.40;;;;;;;-7.41;56.93;100745.09;6221910;23;20329;-87
2023/12/10 08:33:57;;;;;;;18.98;7.15;;;;;;;-7.52;57.05;100731.28;6194559;23;20066;-86
2023/12/10 08:36:24;;;;;;;11.45;5.90;;;;;;;-7.36;57.01;100756.06;6194084;23;20052;-88
2023/12/10 08:54:52;;;;;;;15.13;7.43;;;;;;;-6.78;56.63;100780.97;6230880;23;20027;-89
2023/12/10 08:57:24;;;;;;;19.45;6.57;;;;;;;-6.98;56.92;100771.63;6183571;23;20005;-86
2023/12/10 09:03:48;;;;;;;14.02;6.18;;;;;;;-6.92;56.16;100749.69;6209763;22;20173;-87
2023/12/10 09:06:15;;;;;;;20.20;7.00;;;;;;;-6.66;56.41;100779.63;6185963;23;20024;-89
2023/12/10 09:17:27;;;;;;;22.88;8.32;;;;;;;-6.94;56.79;100722.47;6238680;22;20028;-88
2023/12/10 09:20:44;;;;;;;28.85;8.20;;;;;;;-6.47;56.80;100767.84;6153487;23;20032;-86
2023/12/10 09:23:13;;;;;;;13.55;6.63;;;;;;;-6.55;56.49;100743.91;6231234;23;20013;-86
2023/12/10 09:28:30;;;;;;;17.65;7.72;;;;;;;-6.31;56.22;100748.41;6070979;23;20026;-86
2023/12/10 09:35:26;;;;;;;18.58;8.18;;;;;;;-6.58;56.18;100696.38;6206038;22;20039;-85
2023/12/10 09:38:50;;;;;;;20.17;7.13;;;;;;;-6.55;56.43;100721.81;6212743;23;20020;-86
2023/12/10 09:54:14;;;;;;;25.10;7.55;;;;;;;-6.55;56.17;100692.56;6237338;22;20004;-90
2023/12/10 10:00:50;;;;;;;25.63;6.90;;;;;;;-6.17;56.06;100738.88;6173171;23;20048;-87
2023/12/10 10:15:44;;;;;;;23.98;8.65;;;;;;;-6.10;56.02;100771.81;6290053;22;20083;-88
2023/12/10 10:18:47;;;;;;;23.67;8.20;;;;;;;-6.04;55.93;100768.47;6224449;22;20015;-89
2023/12/10 10:24:25;;;;;;;23.05;7.90;;;;;;;-6.63;55.64;100654.31;6278735;22;20035;-89
2023/12/10 10:27:22;;;;;;;19.17;8.18;;;;;;;-6.15;56.08;100756.38;6273504;22;20014;-90
2023/12/10 10:30:24;;;;;;;21.75;7.95;;;;;;;-6.75;56.00;100639.72;6297329;22;20094;-91
2023/12/10 10:32:56;;;;;;;20.23;7.60;;;;;;;-6.30;56.00;100711.97;6270331;22;20015;-91
2023/12/10 10:35:24;;;;;;;20.17;8.07;;;;;;;-6.17;56.07;100736.22;6247091;22;20023;-85
2023/12/10 10:38:15;;;;;;;15.82;7.15;;;;;;;-6.09;56.52;100746.88;6249280;22;19996;-90
2023/12/10 10:41:16;;;;;;;14.68;6.85;;;;;;;-6.46;56.54;100675.56;6297203;22;20012;-90
2023/12/10 10:43:51;;;;;;;15.48;7.53;;;;;;;-6.88;56.83;100620.78;6246945;22;20043;-88
2023/12/10 10:49:57;;;;;;;14.20;6.35;;;;;;;-6.29;56.97;100721.59;6271047;22;20022;-89
2023/12/10 10:52:27;;;;;;;20.35;6.88;;;;;;;-6.43;57.34;100709.81;6269176;22;20046;-90
2023/12/10 10:55:23;;;;;;;18.33;7.80;;;;;;;-6.46;58.08;100710.97;6234535;22;20020;-90
2023/12/10 10:57:50;;;;;;;17.75;7.70;;;;;;;-6.79;58.16;100678.25;6177908;23;20040;-88
2023/12/10 11:00:38;;;;;;;19.60;7.78;;;;;;;-6.39;58.27;100716.47;6160162;23;20052;-90
2023/12/10 11:03:16;;;;;;;16.40;7.95;;;;;;;-6.52;58.15;100674.44;6178177;23;20041;-90
2023/12/10 11:09:03;;;;;;;17.48;7.75;;;;;;;-6.19;57.99;100715.13;6207231;23;20072;-85
2023/12/10 11:11:41;;;;;;;22.95;7.10;;;;;;;-6.03;57.66;100724.06;6128703;23;20021;-89
2023/12/10 11:14:33;;;;;;;26.35;8.05;;;;;;;-6.05;57.09;100723.41;6150979;23;20021;-90
2023/12/10 11:17:06;;;;;;;14.65;7.07;;;;;;;-6.60;57.09;100636.38;6200650;23;20021;-88
2023/12/10 11:20:38;;;;;;;20.40;8.23;;;;;;;-5.85;56.83;100729.16;6184495;23;20025;-90
2023/12/10 11:23:24;;;;;;;14.30;6.82;;;;;;;-6.16;56.72;100674.84;6200538;23;20481;-90
2023/12/10 11:29:57;;;;;;;26.63;6.85;;;;;;;-6.12;56.72;100685.13;6137141;23;20092;-90
2023/12/10 11:35:39;;;;;;;21.40;8.25;;;;;;;-6.16;56.79;100688.16;6270759;22;20023;-90
2023/12/10 11:38:06;;;;;;;19.98;8.05;;;;;;;-6.53;56.93;100651.47;6188950;22;20075;-89
2023/12/10 11:40:33;;;;;;;29.57;7.67;;;;;;;-6.08;57.65;100721.91;6263819;22;20038;-89
2023/12/10 11:43:04;;;;;;;;;;;;;;;-6.02;57.24;100729.22;6243294;22;20250;-88
2023/12/10 11:45:58;;;;;;;36.03;7.20;;;;;;;-5.96;57.57;100720.56;6239869;22;19911;-85
2023/12/10 11:48:40;;;;;;;17.92;7.00;;;;;;;-6.22;57.31;100686.19;6243619;22;20019;-87
2023/12/10 11:51:07;;;;;;;16.02;6.75;;;;;;;-6.30;57.55;100678.19;6273119;22;20012;-90
2023/12/10 11:53:37;;;;;;;19.83;8.57;;;;;;;-6.12;57.79;100733.91;6218459;22;20031;-87
2023/12/10 11:56:07;;;;;;;14.40;6.78;;;;;;;-6.52;57.74;100674.44;6292901;22;20031;-86
2023/12/10 11:58:35;;;;;;;21.63;7.78;;;;;;;-6.82;58.17;100636.06;6295486;22;20019;-86
2023/12/10 12:01:33;;;;;;;22.30;7.10;;;;;;;-6.16;58.27;100722.78;6265464;22;20027;-87
2023/12/10 12:04:00;;;;;;;15.48;6.40;;;;;;;-6.34;57.70;100676.06;6286518;22;20020;-87
2023/12/10 12:06:44;;;;;;;14.65;6.13;;;;;;;-6.25;57.63;100718.47;6235190;22;20011;-88
2023/12/10 12:09:20;;;;;;;15.57;7.28;;;;;;;-6.31;57.71;100681.88;6242205;22;20464;-85
2023/12/10 12:11:48;;;;;;;16.15;6.47;;;;;;;-5.97;57.26;100732.19;6289818;22;20023;-86
2023/12/10 12:14:52;;;;;;;15.80;6.13;;;;;;;-6.43;57.55;100667.25;6140033;23;20069;-90
2023/12/10 12:17:23;;;;;;;25.80;7.72;;;;;;;-5.95;57.40;100724.88;6147584;23;20033;-86
2023/12/10 12:22:50;;;;;;;15.38;7.50;;;;;;;-5.93;57.25;100736.19;6224931;23;20028;-87
2023/12/10 12:25:34;;;;;;;13.52;6.15;;;;;;;-6.65;57.67;100636.88;6181368;23;20059;-90
2023/12/10 12:28:09;;;;;;;19.88;6.40;;;;;;;-5.96;57.86;100736.53;6177403;23;20048;-88
2023/12/10 12:30:36;;;;;;;11.40;6.00;;;;;;;-6.41;57.50;100660.78;6153118;23;20036;-88
2023/12/10 12:33:10;;;;;;;15.70;6.35;;;;;;;-6.00;57.88;100740.50;6207236;23;20031;-86
2023/12/10 12:36:18;;;;;;;26.88;6.78;;;;;;;-6.71;58.00;100654.34;6181778;23;20024;-87
2023/12/10 12:38:53;;;;;;;26.35;7.15;;;;;;;-6.57;57.97;100695.38;6176462;23;20021;-88
2023/12/10 12:42:28;;;;;;;12.85;5.70;;;;;;;-6.18;58.49;100737.25;6177371;23;19993;-90
2023/12/10 12:45:54;;;;;;;14.73;6.15;;;;;;;-6.08;58.40;100745.88;6170853;23;20021;-89
2023/12/10 12:52:15;;;;;;;;;;;;;;;;;;;;;
2023/12/10 12:55:42;;;;;;;20.20;8.20;;;;;;;-6.17;58.89;100731.72;6107562;23;20082;-89
2023/12/10 12:58:10;;;;;;;15.18;6.72;;;;;;;-6.65;58.51;100651.00;6093883;23;20018;-89
2023/12/10 13:00:37;;;;;;;18.48;7.22;;;;;;;-6.46;58.35;100675.56;6112366;23;20015;-89
2023/12/10 13:03:11;;;;;;;;;;;;;;;-6.13;58.49;100716.25;6090143;23;20026;-84
2023/12/10 13:06:24;;;;;;;25.42;6.90;;;;;;;-6.20;58.59;100713.44;6110770;23;19996;-88
2023/12/10 13:09:02;;;;;;;22.50;6.18;;;;;;;-6.76;58.89;100639.88;6087575;23;20082;-88
2023/12/10 13:11:32;;;;;;;19.65;7.28;;;;;;;-6.55;59.02;100669.44;6216252;22;20593;-89
2023/12/10 13:14:05;;;;;;;33.35;6.82;;;;;;;-6.50;58.79;100682.22;6238645;23;20016;-89
2023/12/10 13:16:31;;;;;;;14.63;7.60;;;;;;;-6.66;58.84;100651.97;6237306;23;20024;-87
2023/12/10 13:19:07;;;;;;;14.30;6.47;;;;;;;-6.72;58.69;100662.47;6237973;23;20020;-90
2023/12/10 13:22:19;;;;;;;16.77;7.35;;;;;;;-6.90;59.22;100633.41;6252055;23;20027;-90
2023/12/10 13:28:41;;;;;;;16.23;6.68;;;;;;;-6.56;59.24;100664.28;6198595;23;20028;-92
2023/12/10 13:31:10;;;;;;;20.42;8.45;;;;;;;-6.58;59.25;100680.41;6207481;23;20027;-90
2023/12/10 13:48:04;;;;;;;17.67;6.97;;;;;;;-6.59;60.12;100693.88;6235885;22;20095;-88
2023/12/10 13:51:32;;;;;;;14.40;7.38;;;;;;;-6.59;59.98;100660.13;6268049;23;20086;-88
2023/12/10 13:54:00;;;;;;;14.95;6.43;;;;;;;-6.76;59.60;100639.88;6216078;23;20027;-90
2023/12/10 13:56:53;;;;;;;14.48;6.35;;;;;;;-6.26;59.64;100706.13;6214784;23;20055;-88
2023/12/10 14:06:17;;;;;;;15.93;7.00;;;;;;;-6.56;59.81;100651.81;6265719;22;20039;-89
2023/12/10 14:12:54;;;;;;;16.85;7.15;;;;;;;-6.31;59.56;100670.41;6219877;23;20083;-91
2023/12/10 14:15:25;;;;;;;10.68;5.50;;;;;;;-6.47;59.24;100666.75;6238063;23;20451;-88
2023/12/10 14:17:55;;;;;;;20.08;7.82;;;;;;;-6.16;59.55;100724.56;6140031;23;20020;-88
2023/12/10 14:20:23;;;;;;;17.73;7.18;;;;;;;-6.30;59.64;100682.69;6186075;23;20027;-89
2023/12/10 14:22:50;;;;;;;16.85;7.53;;;;;;;-6.54;59.47;100649.81;6187184;23;20056;-85
2023/12/10 14:25:16;;;;;;;18.02;7.55;;;;;;;-6.15;59.79;100731.59;6207856;23;20039;-89
2023/12/10 14:27:48;;;;;;;16.67;7.28;;;;;;;-6.56;59.89;100659.78;6235235;23;20025;-86
2023/12/10 14:30:16;;;;;;;13.20;6.32;;;;;;;-5.96;59.51;100749.84;6236930;23;20013;-90
2023/12/10 14:32:51;;;;;;;15.93;7.07;;;;;;;-5.91;59.62;100743.97;6156680;23;20045;-87
2023/12/10 14:35:19;;;;;;;27.38;7.93;;;;;;;-6.29;59.52;100679.03;6231064;23;20059;-85
2023/12/10 14:37:52;;;;;;;27.83;8.68;;;;;;;-6.43;59.27;100662.75;6185293;23;20047;-90
2023/12/10 14:40:19;;;;;;;19.33;7.70;;;;;;;-5.95;59.32;100730.19;6209989;23;20020;-83
2023/12/10 14:43:01;;;;;;;16.42;7.15;;;;;;;-6.27;59.23;100693.84;6233356;23;20020;-86
2023/12/10 14:45:31;;;;;;;13.60;6.35;;;;;;;-6.12;59.25;100698.44;6201136;23;20067;-83
2023/12/10 14:47:59;;;;;;;16.30;7.53;;;;;;;-6.21;59.14;100689.66;6206872;23;20024;-83
2023/12/10 14:50:43;;;;;;;12.32;5.50;;;;;;;-6.19;58.87;100739.06;6214556;23;20151;-86
2023/12/10 14:53:19;;;;;;;11.48;5.85;;;;;;;-6.24;59.60;100735.25;6185082;23;20001;-87
2023/12/10 14:55:48;;;;;;;11.65;5.90;;;;;;;-6.41;59.85;100718.47;6186434;23;20549;-84
2023/12/10 14:58:35;;;;;;;13.60;6.22;;;;;;;-6.46;60.03;100675.56;6183080;23;20020;-85
2023/12/10 15:01:26;;;;;;;10.77;5.85;;;;;;;-6.17;59.28;100680.34;6196710;23;20016;-83
2023/12/10 15:04:21;;;;;;;;;;;;;;;-5.74;58.92;100736.75;6143728;23;20478;-91
2023/12/10 15:06:57;;;;;;;10.75;4.60;;;;;;;-6.23;58.76;100686.34;6235471;23;19920;-84
2023/12/10 15:10:13;;;;;;;10.82;5.25;;;;;;;-6.10;58.78;100678.66;6162756;23;20064;-84
2023/12/10 15:13:21;;;;;;;7.65;4.07;;;;;;;-5.76;59.07;100717.44;6213458;22;20028;-83
2023/12/10 15:19:46;;;;;;;11.52;4.65;;;;;;;-6.04;59.45;100709.09;6240292;22;19966;-87
2023/12/10 15:30:56;;;;;;;8.00;3.20;;;;;;;-6.93;60.14;100669.13;6239205;23;20004;-86
2023/12/10 15:33:31;;;;;;;12.10;4.97;;;;;;;-6.76;60.39;100645.19;6241627;23;20028;-90
2023/12/10 15:39:43;;;;;;;13.20;4.65;;;;;;;-6.91;59.90;100648.53;6209785;23;20059;-89
2023/12/10 15:52:03;;;;;;;15.57;5.07;;;;;;;-6.64;59.23;100673.09;6233354;22;20028;-91
2023/12/10 15:54:36;;;;;;;8.07;4.00;;;;;;;-6.10;59.63;100750.53;6268174;22;20020;-89
2023/12/10 15:57:33;;;;;;;9.48;5.10;;;;;;;-6.06;59.44;100751.88;6244047;23;20019;-86
2023/12/10 16:00:04;;;;;;;11.82;4.03;;;;;;;-6.01;59.40;100752.19;6214089;23;20378;-87
2023/12/10 16:02:39;;;;;;;12.25;5.10;;;;;;;-6.34;59.55;100697.34;6238802;23;20024;-88
2023/12/10 16:05:10;;;;;;;10.98;4.85;;;;;;;-6.45;59.27;100664.78;6185400;23;20030;-88
2023/12/10 16:07:38;;;;;;;9.65;4.78;;;;;;;-6.50;59.05;100656.47;6236711;23;20051;-87
2023/12/10 16:10:25;;;;;;;11.32;4.80;;;;;;;-5.99;58.85;100731.56;6188453;23;20012;-85
2023/12/10 16:13:23;;;;;;;12.68;5.60;;;;;;;-6.60;59.08;100661.13;6116027;23;20161;-87
2023/12/10 16:16:22;;;;;;;17.27;6.28;;;;;;;-5.82;59.21;100745.63;6116779;23;20018;-86
2023/12/10 16:18:48;;;;;;;13.02;5.70;;;;;;;-6.38;59.00;100678.22;6115886;23;20473;-85
2023/12/10 16:21:42;;;;;;;8.30;4.45;;;;;;;-6.47;59.30;100677.41;6115263;23;20408;-87
2023/12/10 16:24:13;;;;;;;11.50;5.00;;;;;;;-6.28;60.07;100724.13;5978388;24;20039;-86
2023/12/10 16:26:50;;;;;;;10.98;5.07;;;;;;;-6.13;60.06;100742.03;6001898;24;20092;-85
2023/12/10 16:29:17;;;;;;;;;;;;;;;-5.96;60.05;100744.53;5959259;24;20020;-90
2023/12/10 16:31:45;;;;;;;;;;;;;;;-5.82;59.47;100750.94;5999875;24;19895;-88
2023/12/10 16:34:16;;;;;;;10.10;4.47;;;;;;;-6.23;59.82;100673.84;5977968;24;19989;-86
2023/12/10 16:36:50;;;;;;;15.10;6.10;;;;;;;-6.29;58.76;100663.06;5956852;24;20027;-88
2023/12/10 16:39:21;;;;;;;9.40;3.90;;;;;;;-6.47;58.97;100661.44;6050299;23;20088;-88
2023/12/10 16:42:13;;;;;;;8.63;4.28;;;;;;;-5.95;59.74;100742.69;6238866;23;20247;-89
2023/12/10 16:45:12;;;;;;;9.82;4.75;;;;;;;-6.45;58.56;100654.13;6277088;23;20042;-88
2023/12/10 16:47:38;;;;;;;12.80;4.47;;;;;;;-6.12;58.40;100722.41;6265703;23;20024;-86
2023/12/10 16:50:13;;;;;;;14.48;5.15;;;;;;;-5.98;58.88;100751.00;6238978;23;20028;-89
2023/12/10 16:58:53;;;;;;;10.32;4.72;;;;;;;-6.45;58.46;100670.09;6294490;22;20034;-85
2023/12/10 17:08:56;;;;;;;10.68;5.10;;;;;;;-6.34;58.05;100650.28;6253120;22;20043;-85
2023/12/10 17:11:30;;;;;;;11.45;5.05;;;;;;;-5.92;57.85;100705.88;6263793;23;20016;-84
2023/12/10 17:13:58;;;;;;;10.15;4.60;;;;;;;-5.61;57.64;100741.53;6211116;23;20043;-87
2023/12/10 17:16:24;;;;;;;11.77;5.07;;;;;;;-6.27;58.20;100661.06;6213794;23;20043;-89
2023/12/10 17:22:21;;;;;;;19.45;4.70;;;;;;;-6.35;58.04;100648.63;6263927;23;20015;-85
2023/12/10 17:25:17;;;;;;;12.32;4.38;;;;;;;-5.63;58.06;100749.69;6216518;23;20020;-84
2023/12/10 17:28:05;;;;;;;12.60;4.43;;;;;;;-5.80;58.21;100714.28;6230543;23;20020;-90
2023/12/10 17:30:31;;;;;;;13.00;4.47;;;;;;;-5.57;57.57;100735.69;6217428;23;20020;-90
2023/12/10 17:33:06;;;;;;;6.80;3.83;;;;;;;-5.83;57.37;100709.31;6268700;23;20026;-91
2023/12/10 17:35:35;;;;;;;9.27;4.22;;;;;;;-5.67;57.88;100751.03;6239061;23;20011;-90
2023/12/10 17:38:04;;;;;;;13.10;4.65;;;;;;;-6.00;58.27;100716.56;6191958;23;20020;-83
2023/12/10 17:40:34;;;;;;;10.52;4.88;;;;;;;-6.16;57.91;100655.38;6235844;23;20097;-87
2023/12/10 17:43:06;;;;;;;12.20;4.32;;;;;;;-6.11;58.69;100698.28;6217031;23;20019;-82
2023/12/10 17:45:48;;;;;;;11.27;5.28;;;;;;;-5.85;58.08;100715.84;6243383;23;20020;-90
2023/12/10 17:48:16;;;;;;;10.00;4.03;;;;;;;-6.08;57.62;100681.97;6176029;23;20141;-90
2023/12/10 17:50:44;;;;;;;14.60;4.57;;;;;;;-5.74;57.39;100742.09;6149925;23;20028;-86
2023/12/10 17:53:18;;;;;;;9.20;3.75;;;;;;;-6.02;57.57;100701.78;6145328;23;20026;-83
2023/12/10 17:55:46;;;;;;;9.35;3.67;;;;;;;-5.90;58.25;100749.09;6128171;23;20025;-89
2023/12/10 17:58:38;;;;;;;6.30;3.47;;;;;;;-6.05;58.73;100731.41;6170221;23;20058;-86
2023/12/10 18:01:18;;;;;;;17.83;3.38;;;;;;;-6.02;58.74;100745.19;6059229;23;20036;-87
2023/12/10 18:03:49;;;;;;;6.53;3.13;;;;;;;-6.04;58.91;100693.94;6090191;23;20007;-86
2023/12/10 18:06:17;;;;;;;9.15;3.72;;;;;;;-6.01;58.14;100724.72;6090460;23;20020;-84
2023/12/10 18:08:44;;;;;;;12.50;4.05;;;;;;;-6.67;58.12;100602.47;6086892;23;20007;-83
2023/12/10 18:11:17;;;;;;;15.25;4.50;;;;;;;-6.12;58.19;100680.66;6081578;23;20117;-82
2023/12/10 18:13:50;;;;;;;11.35;4.03;;;;;;;-5.96;58.62;100704.59;6054886;23;20034;-88
2023/12/10 18:16:26;;;;;;;6.78;3.72;;;;;;;-5.88;58.99;100742.81;6083283;23;20522;-83
2023/12/10 18:18:56;;;;;;;9.52;3.72;;;;;;;-6.17;59.08;100705.13;6085958;23;20029;-82
2023/12/10 18:24:36;;;;;;;9.57;4.70;;;;;;;-5.98;58.99;100703.91;6260910;22;20028;-89
2023/12/10 18:33:50;;;;;;;8.55;3.78;;;;;;;-6.27;58.51;100664.56;6208428;23;20036;-89
2023/12/10 18:36:27;;;;;;;9.02;4.22;;;;;;;-5.87;59.14;100747.94;6176114;23;20044;-87
2023/12/10 18:38:57;;;;;;;14.45;4.93;;;;;;;-6.32;59.10;100660.75;6180151;23;20021;-86
2023/12/10 18:41:29;;;;;;;12.45;4.70;;;;;;;-5.83;58.91;100719.97;6182965;23;20021;-86
2023/12/10 18:50:39;;;;;;;7.28;3.63;;;;;;;-5.83;58.08;100693.34;6232288;22;20047;-85
2023/12/10 18:53:30;;;;;;;10.40;4.47;;;;;;;-6.13;58.17;100625.75;6247784;23;20020;-87
2023/12/10 18:55:58;;;;;;;10.23;3.83;;;;;;;-5.54;58.30;100726.53;6218130;23;20028;-85
2023/12/10 18:58:57;;;;;;;13.03;3.77;;;;;;;-5.52;58.92;100719.19;6143255;23;20031;-85
2023/12/10 19:02:12;;;;;;;11.77;3.72;;;;;;;-5.79;58.81;100710.66;6150021;23;20028;-86
2023/12/10 19:04:54;;;;;;;6.35;3.38;;;;;;;-5.97;58.46;100656.81;6147199;23;20022;-86
2023/12/10 19:07:45;;;;;;;10.15;3.70;;;;;;;-5.61;58.34;100737.03;6126052;23;20053;-88
2023/12/10 19:10:26;;;;;;;12.27;4.10;;;;;;;-6.00;58.26;100665.16;6146551;23;20021;-86
2023/12/10 19:12:52;;;;;;;8.33;3.27;;;;;;;-5.71;58.46;100701.78;6099376;23;20017;-87
2023/12/10 19:15:42;;;;;;;;;;;;;;;-5.36;58.30;100729.78;6121204;23;20026;-85
2023/12/10 19:18:26;;;;;;;9.85;3.78;;;;;;;-5.58;58.22;100734.03;6118369;23;20525;-85
2023/12/10 19:20:53;;;;;;;6.30;3.38;;;;;;;-5.96;58.56;100687.75;6142483;23;20041;-84
2023/12/10 19:23:22;;;;;;;11.65;3.92;;;;;;;-6.07;58.82;100664.19;6119853;23;20018;-84
2023/12/10 19:25:57;;;;;;;10.25;3.38;;;;;;;-6.09;59.49;100682.13;6117195;23;20029;-85
2023/12/10 19:28:30;;;;;;;9.45;3.63;;;;;;;-5.63;59.57;100731.03;6097073;23;20082;-88
2023/12/10 19:31:23;;;;;;;7.20;3.40;;;;;;;-5.92;58.48;100668.59;6109637;23;20108;-86
2023/12/10 19:33:52;;;;;;;6.75;3.45;;;;;;;-5.58;58.68;100734.03;6205779;23;20020;-89
2023/12/10 19:36:44;;;;;;;7.03;3.45;;;;;;;-5.93;58.83;100674.09;6214115;23;20051;-86
2023/12/10 19:39:16;;;;;;;8.75;3.63;;;;;;;-5.98;58.91;100648.00;6220385;23;20043;-89
2023/12/10 19:41:48;;;;;;;9.45;4.07;;;;;;;-5.69;58.53;100705.13;6268258;23;20466;-85
2023/12/10 19:44:36;;;;;;;9.77;4.65;;;;;;;-5.54;58.38;100714.03;6154169;23;20007;-90
2023/12/10 19:47:35;;;;;;;7.63;3.70;;;;;;;-5.53;58.72;100713.06;6191205;23;20024;-87
2023/12/10 19:50:32;;;;;;;11.18;3.35;;;;;;;-5.53;58.87;100730.84;6248883;23;20107;-91
2023/12/10 19:57:00;;;;;;;8.95;4.05;;;;;;;-5.81;58.42;100632.75;6207558;22;20032;-86
2023/12/10 19:59:32;;;;;;;10.18;4.10;;;;;;;-5.45;58.53;100689.00;6212295;23;20027;-87
2023/12/10 20:02:41;;;;;;;14.77;4.68;;;;;;;-5.39;58.15;100695.50;6232803;22;20020;-89
2023/12/10 20:05:09;;;;;;;15.82;4.43;;;;;;;-5.36;58.27;100700.47;6217027;23;20019;-88
2023/12/10 20:07:43;;;;;;;11.55;4.28;;;;;;;-5.67;58.25;100639.16;6235981;23;20012;-85
2023/12/10 20:11:13;;;;;;;10.15;3.75;;;;;;;-5.21;58.23;100730.69;6209498;23;20043;-86
2023/12/10 20:14:06;;;;;;;8.30;3.72;;;;;;;-5.09;58.29;100720.47;6264182;23;20039;-86
2023/12/10 20:16:32;;;;;;;9.95;4.13;;;;;;;-5.57;58.31;100646.94;6239001;23;20024;-88
2023/12/10 20:19:17;;;;;;;8.35;3.65;;;;;;;-5.45;58.69;100690.84;6235977;23;20101;-88
2023/12/10 20:21:44;;;;;;;9.52;3.75;;;;;;;-5.50;58.96;100682.53;6185903;23;20012;-87
2023/12/10 20:24:13;;;;;;;10.45;4.25;;;;;;;-5.40;59.30;100707.13;6235631;23;20454;-89
2023/12/10 20:26:44;;;;;;;11.43;3.92;;;;;;;-5.65;59.20;100669.13;6210901;23;20023;-89
2023/12/10 20:29:37;;;;;;;7.70;3.90;;;;;;;-5.20;59.37;100723.50;6268868;23;20092;-88
2023/12/10 20:32:07;;;;;;;8.63;3.47;;;;;;;-5.09;58.58;100727.63;6240097;23;20016;-89
2023/12/10 20:35:23;;;;;;;7.75;3.65;;;;;;;-5.21;58.52;100729.88;6238920;23;20020;-90
2023/12/10 20:37:51;;;;;;;7.18;3.40;;;;;;;-5.34;58.30;100676.28;6234595;23;20046;-88
2023/12/10 20:40:36;;;;;;;9.63;3.60;;;;;;;-5.58;58.06;100650.63;6261980;23;20027;-86
2023/12/10 20:44:24;;;;;;;14.50;3.72;;;;;;;-5.14;58.07;100736.16;6243267;23;20093;-87
2023/12/10 20:47:19;;;;;;;9.82;4.00;;;;;;;-5.20;58.99;100732.38;6235350;23;20050;-89
2023/12/10 20:49:51;;;;;;;11.13;4.13;;;;;;;-5.77;58.81;100609.25;6233522;23;20366;-86
2023/12/10 20:53:21;;;;;;;7.97;4.00;;;;;;;-5.15;58.71;100726.50;6184397;23;20050;-88
2023/12/10 20:55:49;;;;;;;7.43;3.85;;;;;;;-5.32;58.99;100672.47;6208230;23;20407;-88
2023/12/10 20:58:28;;;;;;;7.88;3.50;;;;;;;-5.03;58.94;100717.09;6230367;23;20016;-89
2023/12/10 21:00:54;;;;;;;12.35;4.43;;;;;;;-5.12;58.64;100677.34;6229742;23;20027;-90
2023/12/10 21:03:22;;;;;;;12.27;4.88;;;;;;;-5.38;58.74;100662.50;6228530;23;20120;-88
2023/12/10 21:06:01;;;;;;;6.93;3.67;;;;;;;-5.62;58.96;100618.19;6230538;23;20078;-86
2023/12/10 21:08:43;;;;;;;6.80;3.45;;;;;;;-5.46;59.20;100658.06;6227302;23;20068;-84
2023/12/10 21:11:12;;;;;;;9.80;3.67;;;;;;;-5.74;59.32;100628.38;6205994;23;20017;-87
2023/12/10 21:13:40;;;;;;;10.45;4.10;;;;;;;-5.39;59.29;100662.69;6201269;23;20024;-87
2023/12/10 21:16:22;;;;;;;12.38;3.40;;;;;;;-5.28;59.04;100699.59;6229071;23;20020;-85
2023/12/10 21:19:06;;;;;;;10.40;4.28;;;;;;;-5.92;59.16;100583.38;6200817;23;20055;-89
2023/12/10 21:21:34;;;;;;;6.75;3.60;;;;;;;-5.53;59.51;100633.13;6229675;23;20355;-88
2023/12/10 21:24:06;;;;;;;8.38;3.80;;;;;;;-5.56;59.58;100656.59;6229146;23;20102;-86
2023/12/10 21:26:35;;;;;;;7.63;3.40;;;;;;;-5.63;59.63;100613.84;6204115;23;20020;-89
2023/12/10 21:29:05;;;;;;;9.90;3.67;;;;;;;-5.40;59.49;100642.34;6207076;23;20104;-88
2023/12/10 21:31:32;;;;;;;6.97;3.05;;;;;;;-5.10;59.45;100685.97;6152328;23;20028;-89
2023/12/10 21:34:07;;;;;;;13.73;4.43;;;;;;;-5.67;59.82;100589.38;6179991;23;20021;-88
2023/12/10 21:36:34;;;;;;;10.82;3.58;;;;;;;-5.73;59.69;100613.22;6229017;23;20031;-87
2023/12/10 21:39:11;;;;;;;12.07;3.60;;;;;;;-5.78;59.46;100567.66;6202593;23;20016;-85
2023/12/10 21:41:38;;;;;;;7.55;3.05;;;;;;;-5.88;59.39;100569.72;6201451;23;20020;-88
2023/12/10 21:44:15;;;;;;;8.10;3.63;;;;;;;-5.67;59.81;100645.31;6177021;23;20023;-87
2023/12/10 21:46:41;;;;;;;8.38;3.33;;;;;;;-6.19;60.91;100599.81;6201995;23;20046;-88
2023/12/10 21:49:07;;;;;;;8.35;4.30;;;;;;;-5.82;61.22;100643.59;6151682;23;20024;-89
2023/12/10 21:52:02;;;;;;;9.52;4.10;;;;;;;-5.51;60.72;100686.22;6202403;23;20020;-89
2023/12/10 22:02:27;;;;;;;12.52;3.45;;;;;;;-5.40;60.45;100695.66;6131392;23;20031;-87
2023/12/10 22:26:48;;;;;;;9.15;3.58;;;;;;;-5.76;59.89;100629.56;6191428;23;20035;-89
2023/12/10 22:33:40;;;;;;;8.57;3.38;;;;;;;-5.54;59.81;100681.22;6228050;23;19999;-86
2023/12/10 22:51:40;;;;;;;6.93;2.90;;;;;;;-5.55;60.12;100655.59;6173543;22;20021;31
2023/12/10 22:58:58;;;;;;;10.68;3.58;;;;;;;-5.57;59.99;100649.63;6196570;23;20056;-88
2023/12/10 23:09:58;;;;;;;9.48;4.15;;;;;;;-5.35;59.22;100640.81;6169970;22;20069;-89